Time;durP1;ratioP1;P1;durP2;ratioP2;P2;SDS_P1;SDS_P2;PMS_P1;PMS_P2;Temp;Humidity;BMP_temperature;BMP_pressure;BME280_temperature;BME280_humidity;BME280_pressure;Samples;Min_cycle;Max_cycle;Signal;HPM_P1;HPM_P2
2022/10/05 00:01:51;;;;;;;14.65;6.97;;;;;;;8.11;91.90;100941.19;5365554;26;33587;-78
2022/10/05 00:04:22;;;;;;;12.07;6.22;;;;;;;8.09;92.02;100941.06;5366304;26;34143;-79
2022/10/05 00:07:00;;;;;;;13.50;6.72;;;;;;;7.75;93.47;100940.31;5346759;26;33741;-79
2022/10/05 00:09:29;;;;;;;15.15;6.53;;;;;;;7.81;92.81;100938.16;5366262;26;34804;-78
2022/10/05 00:11:57;;;;;;;14.18;5.25;;;;;;;7.75;93.63;100942.88;5366245;26;33899;-78
2022/10/05 00:14:32;;;;;;;11.38;5.65;;;;;;;7.81;93.12;100930.44;5365207;26;32903;-78
2022/10/05 00:17:00;;;;;;;11.45;6.05;;;;;;;7.70;93.61;100941.63;5365783;26;33520;-79
2022/10/05 00:19:32;;;;;;;12.73;5.93;;;;;;;7.91;92.59;100930.31;5367527;26;34605;-79
2022/10/05 00:22:08;;;;;;;10.48;6.20;;;;;;;7.82;92.49;100921.87;5368560;26;33909;-77
2022/10/05 00:24:36;;;;;;;12.15;6.37;;;;;;;7.76;93.27;100924.91;5369341;26;33480;-79
2022/10/05 00:27:16;;;;;;;13.60;7.03;;;;;;;7.68;93.60;100926.94;5369307;26;33832;-78
2022/10/05 00:29:45;;;;;;;14.35;7.28;;;;;;;7.80;92.78;100920.88;5388229;26;33914;-79
2022/10/05 00:32:13;;;;;;;13.62;6.80;;;;;;;7.54;94.29;100917.28;5368218;26;33429;-78
2022/10/05 00:34:41;;;;;;;14.45;7.43;;;;;;;7.35;95.75;100919.25;5388114;26;33574;-79
2022/10/05 00:37:09;;;;;;;16.00;7.40;;;;;;;7.29;96.31;100930.00;5367653;26;33536;-78
2022/10/05 00:39:38;;;;;;;12.65;7.80;;;;;;;7.40;96.47;100923.09;5389002;26;34192;-79
2022/10/05 00:42:08;;;;;;;13.27;7.55;;;;;;;7.52;95.50;100929.16;5367791;26;33725;-79
2022/10/05 00:44:53;;;;;;;12.37;6.53;;;;;;;7.67;93.49;100925.16;5388770;26;32568;-79
2022/10/05 00:47:35;;;;;;;14.15;6.87;;;;;;;7.49;95.85;100934.06;5367234;26;33466;-77
2022/10/05 00:50:38;;;;;;;13.80;5.87;;;;;;;7.73;93.22;100940.19;5348471;26;33490;-78
2022/10/05 00:53:30;;;;;;;12.07;5.53;;;;;;;9.02;84.93;100922.69;5389722;26;33754;-79
2022/10/05 00:56:03;;;;;;;9.30;4.53;;;;;;;9.33;81.53;100929.97;5369834;26;33309;-78
2022/10/05 00:58:51;;;;;;;10.77;5.30;;;;;;;8.13;86.88;100926.72;5369857;26;34677;-79
2022/10/05 01:01:32;;;;;;;11.23;6.07;;;;;;;7.78;90.03;100937.94;5390102;26;34604;-78
2022/10/05 01:04:09;;;;;;;14.23;7.68;;;;;;;7.64;90.85;100940.38;5368070;26;33426;-78
2022/10/05 01:06:46;;;;;;;13.30;6.90;;;;;;;7.37;93.14;100943.47;5369388;26;33064;-79
2022/10/05 01:09:31;;;;;;;14.55;6.43;;;;;;;7.55;92.62;100929.41;5368780;26;32194;-78
2022/10/05 01:12:04;;;;;;;10.90;5.35;;;;;;;7.64;92.69;100935.22;5389503;26;33663;-78
2022/10/05 01:14:52;;;;;;;12.30;5.20;;;;;;;7.57;92.28;100943.31;5368814;26;32172;-79
2022/10/05 01:18:02;;;;;;;8.98;5.32;;;;;;;7.54;92.68;100937.91;5387802;26;34222;-79
2022/10/05 01:20:42;;;;;;;11.63;5.65;;;;;;;7.61;92.73;100940.16;5368715;26;33944;-77
2022/10/05 01:23:28;;;;;;;12.00;6.05;;;;;;;7.73;92.11;100949.59;5367622;26;33662;-78
2022/10/05 01:26:07;;;;;;;11.18;6.47;;;;;;;7.70;91.78;100957.09;5386718;26;33435;-79
2022/10/05 01:28:47;;;;;;;10.30;5.30;;;;;;;7.66;91.43;100959.44;5388442;26;33548;-78
2022/10/05 01:31:21;;;;;;;10.63;5.22;;;;;;;7.43;93.40;100959.41;5368142;26;33566;-78
2022/10/05 01:33:57;;;;;;;11.40;4.87;;;;;;;7.26;94.44;100953.88;5366677;26;34092;-78
2022/10/05 01:36:33;;;;;;;12.82;5.00;;;;;;;7.14;95.29;100965.78;5369776;26;33478;-79
2022/10/05 01:39:21;;;;;;;10.02;5.50;;;;;;;7.57;93.54;100969.09;5368752;26;33577;-78
2022/10/05 01:42:14;;;;;;;10.88;5.10;;;;;;;7.47;93.15;100961.41;5388218;26;33915;-79
2022/10/05 01:44:53;;;;;;;10.63;5.30;;;;;;;7.35;94.07;100960.50;5388866;26;34368;-78
2022/10/05 01:47:25;;;;;;;10.52;5.00;;;;;;;7.32;93.85;100960.25;5368639;26;32101;-78
2022/10/05 01:50:03;;;;;;;9.55;4.00;;;;;;;7.58;92.44;100959.66;5388487;26;33479;-78
2022/10/05 01:52:53;;;;;;;9.45;4.85;;;;;;;7.47;92.19;100956.25;5351138;26;32303;-79
2022/10/05 01:55:51;;;;;;;8.85;4.57;;;;;;;7.42;92.13;100957.62;5368248;26;34745;-79
2022/10/05 01:58:28;;;;;;;9.50;4.18;;;;;;;7.33;93.29;100959.50;5389378;26;34379;-79
2022/10/05 02:01:22;;;;;;;10.15;4.22;;;;;;;7.44;91.76;100966.38;5388757;26;33329;-79
2022/10/05 02:04:00;;;;;;;9.90;4.13;;;;;;;7.29;92.61;100961.81;5368260;26;33251;-79
2022/10/05 02:06:37;;;;;;;8.40;4.22;;;;;;;7.29;93.38;100966.97;5389350;26;33755;-77
2022/10/05 02:09:10;;;;;;;9.15;4.05;;;;;;;7.42;92.31;100973.09;5368239;26;33459;-78
2022/10/05 02:11:38;;;;;;;7.37;3.75;;;;;;;7.28;92.69;100972.94;5368654;26;33959;-80
2022/10/05 02:14:10;;;;;;;9.38;4.50;;;;;;;7.33;92.86;100985.25;5368237;26;33966;-78
2022/10/05 02:16:40;;;;;;;11.57;4.70;;;;;;;7.14;94.06;100976.09;5348636;26;34036;-79
2022/10/05 02:19:14;;;;;;;10.65;4.57;;;;;;;7.30;94.14;100975.59;5387204;26;33655;-79
2022/10/05 02:21:46;;;;;;;8.52;3.95;;;;;;;7.39;92.90;100967.69;5330707;26;32066;-79
2022/10/05 02:24:18;;;;;;;8.93;4.40;;;;;;;7.31;92.60;100973.94;5366538;26;33656;-80
2022/10/05 02:26:47;;;;;;;9.43;4.57;;;;;;;7.17;93.21;100985.78;5349401;26;34932;-78
2022/10/05 02:29:17;;;;;;;10.80;4.62;;;;;;;7.19;93.26;100977.38;5368777;26;33829;-79
2022/10/05 02:31:59;;;;;;;9.88;5.10;;;;;;;7.05;93.92;100990.84;5388942;26;34396;-78
2022/10/05 02:34:36;;;;;;;8.00;3.92;;;;;;;7.01;94.14;100984.59;5369687;26;34710;-78
2022/10/05 02:37:25;;;;;;;10.77;4.55;;;;;;;7.09;93.99;100982.59;5389495;26;33788;-79
2022/10/05 02:40:02;;;;;;;9.65;5.37;;;;;;;6.89;94.71;100989.69;5389382;26;34510;-79
2022/10/05 02:42:40;;;;;;;9.63;4.60;;;;;;;7.06;94.09;100988.41;5388745;26;33351;-78
2022/10/05 02:45:17;;;;;;;8.45;4.32;;;;;;;7.12;93.27;100990.56;5369571;26;34066;-79
2022/10/05 02:48:08;;;;;;;6.68;3.58;;;;;;;7.25;92.45;100985.56;5388366;26;34091;-79
2022/10/05 02:50:55;;;;;;;8.30;4.30;;;;;;;7.40;92.84;100984.97;5367976;26;33873;-78
2022/10/05 02:53:52;;;;;;;9.90;4.28;;;;;;;7.17;92.46;100991.81;5368004;26;33543;-78
2022/10/05 02:56:48;;;;;;;6.82;3.22;;;;;;;7.61;89.97;100980.50;5386491;26;34715;-79
2022/10/05 02:59:38;;;;;;;9.65;3.47;;;;;;;7.43;90.02;100985.19;5388133;26;34481;-78
2022/10/05 03:02:25;;;;;;;11.00;4.40;;;;;;;7.54;90.17;100988.59;5369312;26;33602;-79
2022/10/05 03:05:10;;;;;;;7.12;3.80;;;;;;;7.48;90.51;100983.84;5368013;26;34116;-78
2022/10/05 03:07:46;;;;;;;9.23;4.90;;;;;;;7.33;91.14;100980.09;5387760;26;33811;-78
2022/10/05 03:10:32;;;;;;;9.52;5.20;;;;;;;7.32;91.43;100978.28;5367633;26;34598;-78
2022/10/05 03:13:08;;;;;;;9.85;4.93;;;;;;;7.45;90.71;100974.19;5388576;26;34542;-78
2022/10/05 03:15:56;;;;;;;9.68;5.00;;;;;;;7.38;90.27;100971.03;5368258;26;33175;-79
2022/10/05 03:18:58;;;;;;;11.10;5.18;;;;;;;7.34;90.57;100971.56;5349451;26;33477;-78
2022/10/05 03:21:56;;;;;;;9.13;5.00;;;;;;;7.33;91.17;100967.22;5387358;26;34664;-78
2022/10/05 03:24:31;;;;;;;10.90;5.40;;;;;;;7.17;91.99;100955.75;5387751;26;34365;-78
2022/10/05 03:27:02;;;;;;;10.05;5.80;;;;;;;7.26;91.90;100956.44;5367855;26;33258;-78
2022/10/05 03:29:44;;;;;;;12.48;5.80;;;;;;;7.26;92.16;100946.16;5386974;26;34269;-79
2022/10/05 03:32:24;;;;;;;11.55;5.65;;;;;;;7.40;91.06;100964.34;5387942;26;34716;-78
2022/10/05 03:35:01;;;;;;;9.88;5.30;;;;;;;7.83;89.09;100958.13;5388203;26;34506;-79
2022/10/05 03:37:41;;;;;;;10.23;5.00;;;;;;;8.95;84.05;100951.50;5388374;26;33203;-78
2022/10/05 03:40:21;;;;;;;10.18;5.80;;;;;;;9.67;78.66;100959.00;5388305;26;34743;-78
2022/10/05 03:43:02;;;;;;;8.00;3.90;;;;;;;9.78;76.87;100957.12;5367953;26;33587;-79
2022/10/05 03:46:07;;;;;;;7.30;3.65;;;;;;;10.07;75.02;100965.94;5368628;26;33792;-78
2022/10/05 03:48:58;;;;;;;7.35;3.22;;;;;;;9.77;75.66;100965.69;5366876;26;32622;-79
2022/10/05 03:51:32;;;;;;;7.30;3.25;;;;;;;7.95;82.74;100983.94;5367854;26;33927;-78
2022/10/05 03:54:08;;;;;;;5.47;3.03;;;;;;;9.39;76.46;100971.78;5387565;26;34733;-79
2022/10/05 03:57:06;;;;;;;8.50;3.17;;;;;;;9.70;73.56;100973.84;5368512;26;34508;-78
2022/10/05 03:59:43;;;;;;;7.12;3.70;;;;;;;9.38;74.17;100986.37;5357678;26;33177;-79
2022/10/05 04:02:46;;;;;;;8.43;3.78;;;;;;;7.83;81.00;100983.91;5387957;26;34724;-79
2022/10/05 04:05:20;;;;;;;9.80;3.65;;;;;;;7.63;82.85;100989.25;5368978;26;33705;-78
2022/10/05 04:07:57;;;;;;;9.60;3.75;;;;;;;7.94;81.67;100991.56;5368177;26;33935;-79
2022/10/05 04:10:26;;;;;;;7.10;3.40;;;;;;;8.12;80.87;100976.56;5388429;26;33944;-79
2022/10/05 04:13:02;;;;;;;7.82;4.00;;;;;;;7.95;81.43;100989.09;5388135;26;34649;-79
2022/10/05 04:15:43;;;;;;;7.00;3.60;;;;;;;7.55;83.97;100986.13;5368752;26;33602;-78
2022/10/05 04:18:22;;;;;;;11.60;4.45;;;;;;;7.43;85.30;100990.34;5368870;26;33729;-79
2022/10/05 04:20:55;;;;;;;7.20;3.60;;;;;;;7.94;83.15;100986.37;5369356;26;33213;-78
2022/10/05 04:23:37;;;;;;;9.35;4.20;;;;;;;8.52;80.13;100984.62;5388830;26;34089;-79
2022/10/05 04:26:09;;;;;;;9.30;4.15;;;;;;;7.76;83.11;100985.94;5369407;26;33632;-78
2022/10/05 04:28:55;;;;;;;12.40;4.45;;;;;;;7.45;85.24;100993.91;5389336;26;34397;-78
2022/10/05 04:31:35;;;;;;;11.65;4.97;;;;;;;7.27;86.88;100991.72;5349061;26;31865;-79
2022/10/05 04:34:17;;;;;;;11.35;5.90;;;;;;;7.20;85.91;100986.88;5369777;26;34232;-78
2022/10/05 04:36:54;;;;;;;12.93;7.03;;;;;;;7.02;87.11;100995.78;5388300;26;33880;-77
2022/10/05 04:39:57;;;;;;;10.88;6.32;;;;;;;7.07;87.58;100999.63;5368979;26;33903;-79
2022/10/05 04:42:42;;;;;;;11.68;6.80;;;;;;;7.52;85.50;100990.16;5388480;26;33296;-79
2022/10/05 04:45:37;;;;;;;13.38;5.65;;;;;;;7.94;83.68;100992.47;5350925;26;34007;-79
2022/10/05 04:48:15;;;;;;;12.55;5.95;;;;;;;8.72;80.27;100992.13;5388134;26;34712;-78
2022/10/05 04:50:57;;;;;;;10.30;5.32;;;;;;;8.96;78.29;101002.38;5388881;26;34350;-78
2022/10/05 04:53:58;;;;;;;18.50;5.65;;;;;;;8.41;79.73;100989.91;5369292;26;34281;-78
2022/10/05 04:56:41;;;;;;;11.60;5.20;;;;;;;8.04;81.18;101002.69;5306659;26;33092;-78
2022/10/05 05:00:05;;;;;;;10.10;5.37;;;;;;;8.01;81.50;101005.03;5369566;26;34709;-79
2022/10/05 05:03:09;;;;;;;12.65;6.10;;;;;;;7.76;83.18;100996.25;5323394;26;34184;-78
2022/10/05 05:05:40;;;;;;;14.40;6.95;;;;;;;7.82;82.53;100997.62;5368567;26;33654;-79
2022/10/05 05:08:33;;;;;;;13.52;7.15;;;;;;;8.00;81.88;100992.91;5389207;26;33652;-78
2022/10/05 05:11:09;;;;;;;12.35;6.82;;;;;;;8.05;81.49;100999.34;5389437;26;34048;-79
2022/10/05 05:14:11;;;;;;;13.55;7.72;;;;;;;7.60;83.98;100994.19;5351408;26;32287;-78
2022/10/05 05:16:39;;;;;;;;;;;;;;;7.83;82.62;100993.34;5389091;26;33391;-79
2022/10/05 05:19:17;;;;;;;15.40;8.68;;;;;;;7.81;82.53;100992.34;5365214;26;34360;-78
2022/10/05 05:22:02;;;;;;;12.60;7.45;;;;;;;7.81;82.43;100997.50;5368646;26;34032;-78
2022/10/05 05:24:39;;;;;;;11.88;5.07;;;;;;;7.54;83.19;100994.62;5369168;26;33356;-79
2022/10/05 05:27:19;;;;;;;10.18;4.72;;;;;;;8.42;80.33;100996.87;5389973;26;32366;-79
2022/10/05 05:30:22;;;;;;;10.38;4.20;;;;;;;9.01;76.63;100998.44;5389230;26;33798;-79
2022/10/05 05:32:59;;;;;;;9.32;4.05;;;;;;;8.78;76.88;101000.28;5353255;26;34753;-78
2022/10/05 05:35:33;;;;;;;7.95;3.70;;;;;;;8.44;77.80;100994.41;5389064;26;33964;-77
2022/10/05 05:38:05;;;;;;;13.68;4.37;;;;;;;9.36;73.63;101005.16;5389049;26;33517;-78
2022/10/05 05:40:38;;;;;;;9.40;3.70;;;;;;;9.37;72.77;101014.75;5368793;26;34536;-79
2022/10/05 05:43:25;;;;;;;8.68;3.05;;;;;;;9.49;72.45;101010.41;5367489;26;33950;-80
2022/10/05 05:45:53;;;;;;;8.65;4.00;;;;;;;7.98;79.42;101012.56;5368430;26;34716;-81
2022/10/05 05:48:28;;;;;;;11.82;4.03;;;;;;;7.70;82.10;101021.56;5388581;26;33526;-79
2022/10/05 05:51:04;;;;;;;11.82;4.45;;;;;;;7.54;84.09;101030.72;5350196;26;34312;-79
2022/10/05 05:53:42;;;;;;;9.73;4.80;;;;;;;7.78;83.45;101026.50;5369281;26;33524;-80
2022/10/05 05:56:13;;;;;;;10.40;4.50;;;;;;;7.82;84.24;101037.97;5351162;26;33117;-80
2022/10/05 05:58:49;;;;;;;10.32;5.12;;;;;;;7.62;85.85;101039.06;5369193;26;32959;-80
2022/10/05 06:01:31;;;;;;;10.52;5.10;;;;;;;7.51;87.02;101039.91;5350262;26;32275;-80
2022/10/05 06:04:10;;;;;;;11.65;5.05;;;;;;;8.07;85.04;101036.47;5349630;26;33693;-80
2022/10/05 06:06:40;;;;;;;13.05;4.10;;;;;;;8.07;85.53;101043.28;5368708;26;33898;-81
2022/10/05 06:09:34;;;;;;;10.45;4.25;;;;;;;8.16;85.80;101037.94;5366563;26;33395;-81
2022/10/05 06:12:09;;;;;;;10.50;4.35;;;;;;;8.14;86.24;101045.56;5348242;26;33197;-80
2022/10/05 06:14:57;;;;;;;13.32;4.72;;;;;;;8.30;86.77;101044.09;5367157;26;34836;-83
2022/10/05 06:17:34;;;;;;;9.02;4.47;;;;;;;8.42;86.28;101055.34;5367946;26;34385;-83
2022/10/05 06:20:05;;;;;;;10.50;4.70;;;;;;;8.59;85.66;101075.56;5367939;26;33993;-82
2022/10/05 06:22:36;;;;;;;11.35;5.15;;;;;;;8.71;85.44;101080.75;5369169;26;33633;-80
2022/10/05 06:25:10;;;;;;;14.40;5.60;;;;;;;8.45;86.99;101081.41;5367204;26;34034;-82
2022/10/05 06:27:56;;;;;;;11.00;5.05;;;;;;;8.64;87.15;101094.87;5387696;26;33586;-79
2022/10/05 06:30:32;;;;;;;9.68;4.60;;;;;;;8.67;87.59;101089.03;5388183;26;33543;-78
2022/10/05 06:33:11;;;;;;;12.43;5.50;;;;;;;8.74;87.72;101087.81;5348596;26;33838;-83
2022/10/05 06:35:58;;;;;;;12.15;6.93;;;;;;;9.14;86.36;101091.56;5369605;26;33922;-83
2022/10/05 06:38:47;;;;;;;17.67;7.60;;;;;;;9.93;83.45;101086.62;5387820;26;33975;-86
2022/10/05 06:41:37;;;;;;;13.93;6.53;;;;;;;9.99;83.11;101098.31;5388885;26;33618;-80
2022/10/05 06:44:14;;;;;;;15.18;6.87;;;;;;;10.09;82.65;101105.03;5368558;26;33807;-81
2022/10/05 06:46:48;;;;;;;14.25;6.40;;;;;;;10.07;83.25;101105.72;5387820;26;34125;-83
2022/10/05 06:49:19;;;;;;;12.32;5.85;;;;;;;10.47;81.27;101103.22;5387267;26;33517;-79
2022/10/05 06:52:07;;;;;;;12.75;6.25;;;;;;;10.74;80.60;101111.91;5368827;26;33210;-81
2022/10/05 06:54:35;;;;;;;12.27;5.97;;;;;;;10.98;79.81;101110.91;5349106;26;33923;-81
2022/10/05 06:57:29;;;;;;;12.25;6.10;;;;;;;11.17;79.06;101115.56;5388488;26;34866;-81
2022/10/05 06:59:59;;;;;;;13.68;5.80;;;;;;;11.31;78.58;101116.44;5368191;26;33635;-80
2022/10/05 07:02:44;;;;;;;11.12;6.30;;;;;;;11.63;77.65;101119.22;5368509;26;34088;-81
2022/10/05 07:05:35;;;;;;;12.65;6.65;;;;;;;11.15;79.38;101121.47;5368921;26;34259;-79
2022/10/05 07:08:41;;;;;;;14.77;7.55;;;;;;;11.98;77.02;101122.31;5369138;26;33779;-79
2022/10/05 07:11:46;;;;;;;12.95;6.70;;;;;;;11.88;77.36;101127.72;5370992;26;34489;-81
2022/10/05 07:14:31;;;;;;;16.30;7.40;;;;;;;11.24;79.92;101134.97;5369334;26;33639;-79
2022/10/05 07:17:11;;;;;;;15.90;7.20;;;;;;;11.19;80.69;101126.94;5388525;26;33185;-80
2022/10/05 07:19:59;;;;;;;11.75;6.97;;;;;;;11.69;79.30;101140.38;5387770;26;33141;-83
2022/10/05 07:22:45;;;;;;;17.67;8.02;;;;;;;12.32;77.06;101115.63;5387642;26;33672;-86
2022/10/05 07:25:35;;;;;;;15.48;7.80;;;;;;;12.62;76.03;101111.31;5367753;26;33576;-79
2022/10/05 07:28:07;;;;;;;16.92;8.10;;;;;;;12.43;77.08;101106.75;5367571;26;34054;-81
2022/10/05 07:30:50;;;;;;;13.00;7.45;;;;;;;12.82;75.92;101108.94;5368349;26;33957;-80
2022/10/05 07:33:33;;;;;;;13.32;7.78;;;;;;;13.21;74.79;101114.59;5368164;26;33556;-81
2022/10/05 07:39:31;;;;;;;13.77;7.05;;;;;;;12.98;76.19;101116.81;5331885;26;33799;-79
2022/10/05 07:42:47;;;;;;;13.95;7.15;;;;;;;12.59;76.69;101116.31;5369141;26;34841;-78
2022/10/05 07:45:23;;;;;;;13.52;7.97;;;;;;;12.74;76.42;101116.31;5349350;26;33093;-80
2022/10/05 07:47:56;;;;;;;14.52;7.35;;;;;;;13.37;74.46;101122.47;5365645;26;33472;-77
2022/10/05 07:50:34;;;;;;;11.77;6.80;;;;;;;13.73;72.84;101122.63;5366096;26;34283;-80
2022/10/05 07:53:19;;;;;;;13.20;7.28;;;;;;;13.67;73.48;101117.09;5368261;26;34464;-79
2022/10/05 07:55:50;;;;;;;;;;;;;;;14.26;71.70;101106.31;5368879;26;34590;-80
2022/10/05 07:58:26;;;;;;;15.32;6.35;;;;;;;14.49;70.94;101109.19;5369566;26;33426;-80
2022/10/05 08:00:59;;;;;;;15.52;7.97;;;;;;;14.38;71.23;101110.34;5389525;26;34520;-79
2022/10/05 08:04:15;;;;;;;15.73;7.20;;;;;;;14.52;71.33;101124.97;5388230;26;33944;-80
2022/10/05 08:06:55;;;;;;;12.80;6.75;;;;;;;14.78;70.90;101125.41;5379648;26;33526;-81
2022/10/05 08:09:41;;;;;;;11.30;6.30;;;;;;;14.52;71.61;101125.84;5369744;26;34413;-81
2022/10/05 08:12:15;;;;;;;12.13;6.60;;;;;;;14.62;71.87;101135.09;5388590;26;33596;-83
2022/10/05 08:14:47;;;;;;;16.92;7.47;;;;;;;14.77;71.24;101126.22;5388032;26;34624;-77
2022/10/05 08:17:24;;;;;;;11.80;6.82;;;;;;;14.97;70.83;101120.25;5388710;26;33859;-80
2022/10/05 08:20:05;;;;;;;15.95;7.80;;;;;;;15.11;70.15;101118.31;5368602;26;32922;-79
2022/10/05 08:22:40;;;;;;;12.15;7.55;;;;;;;15.34;69.57;101115.06;5389398;26;33835;-80
2022/10/05 08:25:19;;;;;;;17.45;8.25;;;;;;;15.49;69.49;101112.25;5390734;26;34649;-79
2022/10/05 08:28:07;;;;;;;12.73;8.30;;;;;;;15.67;69.48;101111.31;5370363;26;33650;-77
2022/10/05 08:30:52;;;;;;;30.25;9.57;;;;;;;15.59;69.64;101097.91;5370038;26;33293;-83
2022/10/05 08:33:21;;;;;;;14.98;7.80;;;;;;;15.84;69.08;101094.69;5369201;26;34538;-80
2022/10/05 08:35:54;;;;;;;16.10;8.00;;;;;;;15.22;69.29;101100.53;5389877;26;34015;-80
2022/10/05 08:38:28;;;;;;;9.13;6.32;;;;;;;15.65;67.61;101092.06;5370229;26;33461;-79
2022/10/05 08:41:02;;;;;;;11.57;6.90;;;;;;;15.38;68.17;101103.03;5370750;26;33448;-78
2022/10/05 08:43:58;;;;;;;13.82;6.57;;;;;;;15.87;65.93;101092.19;5370698;26;34986;-78
2022/10/05 08:47:05;;;;;;;14.85;6.62;;;;;;;16.65;64.07;101088.50;5390967;26;33594;-81
2022/10/05 08:49:38;;;;;;;12.45;6.47;;;;;;;17.21;63.26;101092.50;5332776;26;34552;-79
2022/10/05 08:52:14;;;;;;;11.32;5.97;;;;;;;16.82;64.07;101076.12;5390784;26;33238;-80
2022/10/05 08:55:09;;;;;;;14.30;6.57;;;;;;;15.69;64.28;101073.09;5390924;26;34542;-79
2022/10/05 08:57:55;;;;;;;19.05;7.40;;;;;;;15.66;64.03;101084.28;5391689;26;34895;-83
2022/10/05 09:00:24;;;;;;;8.80;5.00;;;;;;;15.74;63.51;101082.03;5391134;26;33769;-79
2022/10/05 09:03:36;;;;;;;10.20;5.45;;;;;;;15.43;63.74;101080.66;5371157;26;34401;-82
2022/10/05 09:06:32;;;;;;;14.02;6.55;;;;;;;15.73;63.08;101085.50;5285092;26;34513;-79
2022/10/05 09:09:14;;;;;;;12.82;6.45;;;;;;;16.29;63.66;101087.03;5392144;26;33693;-79
2022/10/05 09:11:56;;;;;;;10.63;6.85;;;;;;;17.22;62.18;101099.53;5371530;26;33404;-87
2022/10/05 09:15:15;;;;;;;11.90;7.28;;;;;;;17.05;61.18;101098.84;5371900;26;32965;-78
2022/10/05 09:18:22;;;;;;;35.03;8.90;;;;;;;16.45;62.12;101106.00;5261121;27;34330;-84
2022/10/05 09:20:54;;;;;;;11.90;6.85;;;;;;;17.38;58.17;101101.00;5276610;27;33575;-82
2022/10/05 09:23:36;;;;;;;12.50;7.07;;;;;;;18.21;57.56;101114.50;5355288;26;33474;-80
2022/10/05 09:26:22;;;;;;;12.40;7.18;;;;;;;18.20;57.19;101107.50;5390946;26;33527;-81
2022/10/05 09:28:56;;;;;;;10.18;6.10;;;;;;;18.45;57.21;101110.97;5369667;26;33941;-84
2022/10/05 09:31:51;;;;;;;11.63;6.30;;;;;;;17.61;56.64;101114.94;5387712;26;34359;-85
2022/10/05 09:34:40;;;;;;;10.25;5.72;;;;;;;17.60;58.13;101112.31;5387887;26;34280;-82
2022/10/05 09:37:29;;;;;;;9.88;6.07;;;;;;;18.64;57.89;101110.72;5387266;26;33288;-81
2022/10/05 09:40:02;;;;;;;8.63;5.32;;;;;;;19.40;55.75;101098.22;5368946;26;34751;-79
2022/10/05 09:42:45;;;;;;;9.67;5.17;;;;;;;19.42;53.17;101104.41;5388158;26;33923;-78
2022/10/05 09:45:18;;;;;;;9.32;5.68;;;;;;;18.46;55.33;101110.09;5387303;26;34361;-77
2022/10/05 09:48:16;;;;;;;8.52;5.15;;;;;;;18.37;54.97;101120.28;5369049;26;34002;-78
2022/10/05 09:51:28;;;;;;;11.07;4.97;;;;;;;18.73;54.49;101117.12;5387399;26;34677;-80
2022/10/05 09:54:34;;;;;;;9.18;5.37;;;;;;;18.70;52.16;101102.16;5360340;26;33924;-78
2022/10/05 09:57:13;;;;;;;9.15;4.75;;;;;;;18.21;54.00;101096.16;5387957;26;34526;-76
2022/10/05 10:00:20;;;;;;;9.55;5.30;;;;;;;19.01;54.38;101090.94;5366369;26;33408;-77
2022/10/05 10:03:18;;;;;;;8.77;5.05;;;;;;;18.42;55.64;101097.72;5387856;26;33945;-76
2022/10/05 10:06:00;;;;;;;9.07;4.18;;;;;;;20.13;50.81;101089.78;5368136;26;33879;-79
2022/10/05 10:08:40;;;;;;;8.05;4.60;;;;;;;18.52;54.47;101091.94;5369259;26;33597;-75
2022/10/05 10:11:23;;;;;;;7.40;4.03;;;;;;;17.75;55.86;101094.53;5387617;26;33668;-80
2022/10/05 10:14:13;;;;;;;6.75;4.20;;;;;;;19.15;53.79;101095.72;5367732;26;34829;-76
2022/10/05 10:17:05;;;;;;;5.90;3.87;;;;;;;19.59;52.75;101085.66;5386700;26;34039;-74
2022/10/05 10:20:04;;;;;;;7.68;4.43;;;;;;;18.90;53.27;101094.97;5366458;26;34238;-76
2022/10/05 10:22:50;;;;;;;11.75;4.80;;;;;;;19.84;52.41;101080.25;5386414;26;33053;-76
2022/10/05 10:25:33;;;;;;;6.45;3.78;;;;;;;21.09;50.19;101087.72;5384054;26;33777;-79
2022/10/05 10:28:23;;;;;;;9.20;4.07;;;;;;;20.21;50.68;101081.22;5365773;26;33503;-80
2022/10/05 10:31:17;;;;;;;9.65;3.87;;;;;;;22.09;46.93;101074.84;5385280;26;33880;-79
2022/10/05 10:34:10;;;;;;;8.10;3.65;;;;;;;19.96;50.38;101081.44;5385477;26;33116;-77
2022/10/05 10:36:47;;;;;;;9.38;3.92;;;;;;;20.12;52.84;101094.13;5386676;26;34105;-82
2022/10/05 10:39:24;;;;;;;8.00;4.10;;;;;;;20.52;49.80;101087.25;5368260;26;34264;-82
2022/10/05 10:42:23;;;;;;;7.75;3.90;;;;;;;20.46;51.40;101089.75;5388061;26;34075;-78
2022/10/05 10:45:06;;;;;;;7.80;3.80;;;;;;;20.12;49.52;101087.97;5387750;26;34026;-80
2022/10/05 10:47:34;;;;;;;6.43;3.50;;;;;;;19.29;51.32;101091.75;5349622;26;33689;-84
2022/10/05 10:50:29;;;;;;;11.65;3.83;;;;;;;19.11;53.97;101096.47;5388176;26;34754;-84
2022/10/05 10:53:22;;;;;;;7.95;4.07;;;;;;;19.69;53.06;101087.69;5365870;26;35554;-80
2022/10/05 10:56:10;;;;;;;6.70;3.70;;;;;;;19.55;54.59;101087.28;5385579;26;33723;-76
2022/10/05 10:59:09;;;;;;;7.43;3.72;;;;;;;20.11;51.11;101087.09;5386696;26;33817;-82
2022/10/05 11:01:55;;;;;;;6.65;3.90;;;;;;;20.51;50.36;101081.94;5348596;26;33001;-80
2022/10/05 11:04:46;;;;;;;9.10;4.07;;;;;;;22.38;47.08;101085.94;5387525;26;34430;-84
2022/10/05 11:07:38;;;;;;;6.78;3.67;;;;;;;20.52;49.27;101079.38;5366613;26;33467;-76
2022/10/05 11:10:30;;;;;;;8.68;4.45;;;;;;;19.79;52.74;101089.72;5387098;26;35921;-85
2022/10/05 11:13:15;;;;;;;7.35;3.62;;;;;;;19.38;54.13;101086.78;5365386;26;33930;-79
2022/10/05 11:16:02;;;;;;;6.93;3.50;;;;;;;20.77;52.44;101090.53;5366331;26;34232;-82
2022/10/05 11:19:07;;;;;;;5.93;3.60;;;;;;;22.05;48.95;101080.06;5386952;26;33116;-80
2022/10/05 11:21:41;;;;;;;;;;;;;;;21.57;49.81;101071.22;5386271;26;34863;-77
2022/10/05 11:24:37;;;;;;;7.18;4.03;;;;;;;21.98;48.89;101063.22;5385832;26;33819;-83
2022/10/05 11:27:45;;;;;;;8.55;3.90;;;;;;;20.81;49.79;101068.69;5388482;26;34220;-82
2022/10/05 11:30:21;;;;;;;7.80;3.95;;;;;;;20.92;50.75;101069.81;5352177;26;33924;-86
2022/10/05 11:33:27;;;;;;;8.73;3.60;;;;;;;21.39;50.85;101066.44;5331384;26;35252;-76
2022/10/05 11:36:17;;;;;;;9.00;5.03;;;;;;;22.63;47.92;101064.34;5386618;26;34190;-81
2022/10/05 11:39:16;;;;;;;6.10;3.75;;;;;;;22.76;45.53;101058.38;5385982;26;34201;-79
2022/10/05 11:42:20;;;;;;;8.32;4.07;;;;;;;21.27;49.58;101056.53;5387481;26;34042;-82
2022/10/05 11:45:20;;;;;;;5.00;2.65;;;;;;;21.32;50.34;101049.59;5369076;26;34352;-80
2022/10/05 11:48:09;;;;;;;7.32;2.80;;;;;;;21.98;46.09;101040.37;5385459;26;34529;-78
2022/10/05 11:50:43;;;;;;;5.25;2.47;;;;;;;21.40;48.89;101032.22;5388637;26;33440;-79
2022/10/05 11:53:32;;;;;;;3.97;2.20;;;;;;;21.94;44.88;101040.28;5389019;26;34101;-78
2022/10/05 11:56:24;;;;;;;6.18;3.10;;;;;;;22.32;43.78;101032.16;5388889;26;34022;-78
2022/10/05 11:58:56;;;;;;;4.95;2.53;;;;;;;21.82;46.08;101030.37;5350564;26;34669;-82
2022/10/05 12:01:45;;;;;;;7.43;2.90;;;;;;;22.42;47.52;101028.81;5389840;26;33559;-84
2022/10/05 12:04:46;;;;;;;5.22;2.00;;;;;;;22.13;44.90;101029.19;5389548;26;33221;-82
2022/10/05 12:07:23;;;;;;;7.10;2.28;;;;;;;23.58;42.24;101012.75;5324883;26;33848;-81
2022/10/05 12:10:22;;;;;;;5.05;2.00;;;;;;;21.07;46.28;101015.69;5366481;26;33706;-80
2022/10/05 12:13:12;;;;;;;6.50;2.12;;;;;;;20.77;47.09;101017.69;5368423;26;33474;-83
2022/10/05 12:15:46;;;;;;;5.65;2.10;;;;;;;21.21;46.42;101020.41;5367238;26;34323;-79
2022/10/05 12:18:30;;;;;;;3.12;1.85;;;;;;;21.56;46.48;101017.63;5368577;26;34186;-79
2022/10/05 12:21:08;;;;;;;5.25;1.92;;;;;;;20.51;45.87;101014.41;5388384;26;34577;-81
2022/10/05 12:23:45;;;;;;;3.87;1.67;;;;;;;20.73;47.37;101022.84;5367014;26;34652;-76
2022/10/05 12:26:26;;;;;;;4.80;1.77;;;;;;;21.30;43.81;101022.31;5370189;26;34113;-80
2022/10/05 12:29:06;;;;;;;4.70;1.80;;;;;;;21.43;44.18;101010.28;5368101;26;34463;-81
2022/10/05 12:31:51;;;;;;;7.70;1.87;;;;;;;20.95;46.22;101014.56;5352110;26;33947;-79
2022/10/05 12:34:31;;;;;;;4.32;1.70;;;;;;;22.16;42.64;101007.25;5368066;26;33968;-78
2022/10/05 12:37:27;;;;;;;7.37;1.77;;;;;;;23.09;42.18;101012.19;5387367;26;33204;-78
2022/10/05 12:40:22;;;;;;;6.12;1.87;;;;;;;21.90;43.18;101012.06;5388447;26;33805;-82
2022/10/05 12:42:56;;;;;;;4.05;1.70;;;;;;;21.19;44.59;101000.16;5374822;26;35015;-84
2022/10/05 12:45:46;;;;;;;2.67;1.75;;;;;;;20.97;45.29;101004.94;5388835;26;33749;-79